createdAt,value
2022-07-26T00:01:19.079Z,100.00
2022-07-26T00:03:45.778Z,100.00
2022-07-26T00:06:12.122Z,100.00
2022-07-26T00:08:38.586Z,100.00
2022-07-26T00:11:07.186Z,100.00
2022-07-26T00:13:34.459Z,100.00
2022-07-26T00:16:01.067Z,100.00
2022-07-26T00:18:27.452Z,100.00
2022-07-26T00:20:53.804Z,100.00
2022-07-26T00:23:21.930Z,100.00
2022-07-26T00:25:48.280Z,100.00
2022-07-26T00:28:14.577Z,100.00
2022-07-26T00:30:40.967Z,100.00
2022-07-26T00:33:07.413Z,100.00
2022-07-26T00:35:34.841Z,100.00
2022-07-26T00:38:01.135Z,100.00
2022-07-26T00:40:27.526Z,100.00
2022-07-26T00:42:53.876Z,100.00
2022-07-26T00:45:20.263Z,100.00
2022-07-26T00:47:46.580Z,100.00
2022-07-26T00:50:14.593Z,100.00
2022-07-26T00:52:45.065Z,100.00
2022-07-26T00:55:11.441Z,100.00
2022-07-26T00:57:38.264Z,100.00
2022-07-26T01:00:06.751Z,100.00
2022-07-26T01:02:33.142Z,100.00
2022-07-26T01:04:59.530Z,100.00
2022-07-26T01:07:25.843Z,100.00
2022-07-26T01:09:52.243Z,100.00
2022-07-26T01:12:18.593Z,100.00
2022-07-26T01:14:45.290Z,100.00
2022-07-26T01:17:12.466Z,100.00
2022-07-26T01:19:38.800Z,100.00
2022-07-26T01:22:05.389Z,100.00
2022-07-26T01:24:31.833Z,100.00
2022-07-26T01:26:58.363Z,100.00
2022-07-26T01:29:34.587Z,100.00
2022-07-26T01:32:04.003Z,100.00
2022-07-26T01:34:30.647Z,100.00
2022-07-26T01:36:57.305Z,100.00
2022-07-26T01:39:23.644Z,100.00
2022-07-26T01:41:49.943Z,100.00
2022-07-26T01:44:16.272Z,100.00
2022-07-26T01:46:42.701Z,100.00
2022-07-26T01:49:09.350Z,100.00
2022-07-26T01:51:35.950Z,100.00
2022-07-26T01:54:02.676Z,100.00
2022-07-26T01:56:29.052Z,100.00
2022-07-26T01:58:55.518Z,100.00
2022-07-26T02:01:39.073Z,100.00
2022-07-26T02:04:06.852Z,100.00
2022-07-26T02:06:33.334Z,100.00
2022-07-26T02:09:00.722Z,100.00
2022-07-26T02:11:28.175Z,100.00
2022-07-26T02:13:54.506Z,100.00
2022-07-26T02:16:20.858Z,100.00
2022-07-26T02:18:47.239Z,100.00
2022-07-26T02:21:13.572Z,100.00
2022-07-26T02:23:41.804Z,100.00
2022-07-26T02:26:08.464Z,100.00
2022-07-26T02:28:34.789Z,100.00
2022-07-26T02:31:01.247Z,100.00
2022-07-26T02:33:27.597Z,100.00
2022-07-26T02:35:53.941Z,100.00
2022-07-26T02:38:20.276Z,100.00
2022-07-26T02:40:46.675Z,100.00
2022-07-26T02:43:12.990Z,100.00
2022-07-26T02:45:39.355Z,100.00
2022-07-26T02:48:05.840Z,100.00
2022-07-26T02:50:32.254Z,100.00
2022-07-26T02:52:58.840Z,100.00
2022-07-26T02:55:25.675Z,100.00
2022-07-26T02:57:52.147Z,100.00
2022-07-26T03:00:20.061Z,100.00
2022-07-26T03:02:46.543Z,100.00
2022-07-26T03:05:12.918Z,100.00
2022-07-26T03:07:39.385Z,100.00
2022-07-26T03:10:05.943Z,100.00
2022-07-26T03:12:32.261Z,100.00
2022-07-26T03:14:58.652Z,100.00
2022-07-26T03:17:24.990Z,100.00
2022-07-26T03:19:51.347Z,100.00
2022-07-26T03:22:17.806Z,100.00
2022-07-26T03:24:44.127Z,100.00
2022-07-26T03:27:10.587Z,100.00
2022-07-26T03:29:37.567Z,100.00
2022-07-26T03:32:04.134Z,100.00
2022-07-26T03:34:30.432Z,100.00
2022-07-26T03:36:56.930Z,100.00
2022-07-26T03:39:23.331Z,100.00
2022-07-26T03:41:49.707Z,100.00
2022-07-26T03:44:16.054Z,100.00
2022-07-26T03:46:42.396Z,100.00
2022-07-26T03:49:10.972Z,100.00
2022-07-26T03:51:40.953Z,100.00
2022-07-26T03:54:07.528Z,100.00
2022-07-26T03:56:34.160Z,100.00
2022-07-26T03:59:08.769Z,100.00
2022-07-26T04:01:35.778Z,100.00
2022-07-26T04:04:02.319Z,100.00
2022-07-26T04:06:28.737Z,100.00
2022-07-26T04:08:55.165Z,100.00
2022-07-26T04:11:21.572Z,100.00
2022-07-26T04:13:53.255Z,100.00
2022-07-26T04:16:19.576Z,100.00
2022-07-26T04:18:46.073Z,100.00
2022-07-26T04:21:12.438Z,100.00
2022-07-26T04:23:38.770Z,100.00
2022-07-26T04:26:05.165Z,100.00
2022-07-26T04:28:31.879Z,100.00
2022-07-26T04:30:59.003Z,100.00
2022-07-26T04:33:25.668Z,100.00
2022-07-26T04:35:52.632Z,100.00
2022-07-26T04:38:19.080Z,100.00
2022-07-26T04:40:45.800Z,100.00
2022-07-26T04:43:15.612Z,100.00
2022-07-26T04:45:42.794Z,100.00
2022-07-26T04:48:09.124Z,100.00
2022-07-26T04:50:35.498Z,100.00
2022-07-26T04:53:02.917Z,100.00
2022-07-26T04:55:29.606Z,100.00
2022-07-26T04:57:55.922Z,100.00
2022-07-26T05:00:24.768Z,100.00
2022-07-26T05:02:53.462Z,100.00
2022-07-26T05:05:20.604Z,100.00
2022-07-26T05:07:48.792Z,100.00
2022-07-26T05:10:15.774Z,100.00
2022-07-26T05:12:42.092Z,100.00
2022-07-26T05:15:13.617Z,100.00
2022-07-26T05:17:41.131Z,100.00
2022-07-26T05:20:08.071Z,100.00
2022-07-26T05:22:37.206Z,100.00
2022-07-26T05:25:04.316Z,100.00
2022-07-26T05:27:30.803Z,100.00
2022-07-26T05:29:58.220Z,100.00
2022-07-26T05:32:24.561Z,100.00
2022-07-26T05:34:51.011Z,100.00
2022-07-26T05:37:17.367Z,100.00
2022-07-26T05:39:43.747Z,100.00
2022-07-26T05:42:10.318Z,100.00
2022-07-26T05:44:36.638Z,100.00
2022-07-26T05:47:09.134Z,100.00
2022-07-26T05:49:40.245Z,100.00
2022-07-26T05:52:06.923Z,100.00
2022-07-26T05:54:33.242Z,100.00
2022-07-26T05:56:59.564Z,100.00
2022-07-26T05:59:25.908Z,100.00
2022-07-26T06:01:56.370Z,100.00
2022-07-26T06:04:23.793Z,100.00
2022-07-26T06:06:52.935Z,100.00
2022-07-26T06:09:19.504Z,100.00
2022-07-26T06:11:46.351Z,100.00
2022-07-26T06:14:12.976Z,100.00
2022-07-26T06:16:39.616Z,100.00
2022-07-26T06:19:05.949Z,100.00
2022-07-26T06:21:32.282Z,100.00
2022-07-26T06:23:58.598Z,100.00
2022-07-26T06:26:24.960Z,100.00
2022-07-26T06:28:51.557Z,100.00
2022-07-26T06:31:18.565Z,100.00
2022-07-26T06:33:45.117Z,100.00
2022-07-26T06:36:11.583Z,100.00
2022-07-26T06:38:37.885Z,100.00
2022-07-26T06:41:04.227Z,100.00
2022-07-26T06:43:30.559Z,100.00
2022-07-26T06:45:57.024Z,100.00
2022-07-26T06:48:23.416Z,100.00
2022-07-26T06:50:49.807Z,100.00
2022-07-26T06:53:16.141Z,100.00
2022-07-26T06:55:42.657Z,100.00
2022-07-26T06:58:09.094Z,100.00
2022-07-26T07:00:35.427Z,100.00
2022-07-26T07:03:01.736Z,100.00
2022-07-26T07:05:31.040Z,100.00
2022-07-26T07:07:57.708Z,100.00
2022-07-26T07:10:24.730Z,100.00
2022-07-26T07:12:51.226Z,100.00
2022-07-26T07:15:17.679Z,100.00
2022-07-26T07:17:43.996Z,100.00
2022-07-26T07:20:10.684Z,100.00
2022-07-26T07:22:36.983Z,100.00
2022-07-26T07:25:03.506Z,100.00
2022-07-26T07:27:32.641Z,100.00
2022-07-26T07:29:59.940Z,100.00
2022-07-26T07:32:26.422Z,100.00
2022-07-26T07:34:54.898Z,100.00
2022-07-26T07:37:21.385Z,100.00
2022-07-26T07:39:50.174Z,100.00
2022-07-26T07:42:17.288Z,100.00
2022-07-26T07:44:43.682Z,100.00
2022-07-26T07:47:10.152Z,100.00
2022-07-26T07:49:36.592Z,100.00
2022-07-26T07:52:03.296Z,100.00
2022-07-26T07:54:30.083Z,100.00
2022-07-26T07:56:56.465Z,100.00
2022-07-26T07:59:23.546Z,100.00
2022-07-26T08:01:50.125Z,100.00
2022-07-26T08:04:16.619Z,100.00
2022-07-26T08:06:43.124Z,100.00
2022-07-26T08:09:16.815Z,100.00
2022-07-26T08:11:43.137Z,100.00
2022-07-26T08:14:09.475Z,100.00
2022-07-26T08:16:35.981Z,100.00
2022-07-26T08:19:02.388Z,100.00
2022-07-26T08:21:29.350Z,100.00
2022-07-26T08:23:56.366Z,100.00
2022-07-26T08:26:22.739Z,100.00
2022-07-26T08:28:58.381Z,100.00
2022-07-26T08:31:26.581Z,100.00
2022-07-26T08:33:52.927Z,100.00
2022-07-26T08:36:19.255Z,100.00
2022-07-26T08:38:47.450Z,100.00
2022-07-26T08:41:14.489Z,100.00
2022-07-26T08:43:52.385Z,100.00
2022-07-26T08:46:25.989Z,100.00
2022-07-26T08:48:53.390Z,100.00
2022-07-26T08:51:20.223Z,100.00
2022-07-26T08:53:47.419Z,100.00
2022-07-26T08:56:13.934Z,100.00
2022-07-26T08:58:40.796Z,100.00
2022-07-26T09:01:08.711Z,100.00
2022-07-26T09:03:37.931Z,100.00
2022-07-26T09:06:11.612Z,100.00
2022-07-26T09:08:38.009Z,100.00
2022-07-26T09:11:24.290Z,100.00
2022-07-26T09:13:55.084Z,100.00
2022-07-26T09:16:21.863Z,100.00
2022-07-26T09:18:48.411Z,100.00
2022-07-26T09:21:34.129Z,100.00
2022-07-26T09:24:00.667Z,100.00
2022-07-26T09:26:27.109Z,100.00
2022-07-26T09:29:05.965Z,100.00
2022-07-26T09:31:32.950Z,100.00
2022-07-26T09:34:00.106Z,100.00
2022-07-26T09:36:27.746Z,100.00
2022-07-26T09:39:01.499Z,100.00
2022-07-26T09:41:30.572Z,100.00
2022-07-26T09:44:01.301Z,100.00
2022-07-26T09:46:28.576Z,100.00
2022-07-26T09:49:12.320Z,100.00
2022-07-26T09:51:40.611Z,100.00
2022-07-26T09:54:08.061Z,100.00
2022-07-26T09:56:42.261Z,100.00
2022-07-26T09:59:09.142Z,100.00
2022-07-26T10:01:35.715Z,100.00
2022-07-26T10:04:02.099Z,100.00
2022-07-26T10:06:30.509Z,100.00
2022-07-26T10:08:57.250Z,100.00
2022-07-26T10:11:25.644Z,100.00
2022-07-26T10:13:51.964Z,100.00
2022-07-26T10:16:36.290Z,100.00
2022-07-26T10:19:04.925Z,100.00
2022-07-26T10:21:31.469Z,100.00
2022-07-26T10:23:58.948Z,100.00
2022-07-26T10:26:31.437Z,100.00
2022-07-26T10:29:19.108Z,95.25
2022-07-26T10:31:46.807Z,89.71
2022-07-26T10:34:31.855Z,100.00
2022-07-26T10:37:02.027Z,86.83
2022-07-26T10:39:28.349Z,100.00
2022-07-26T10:41:58.734Z,100.00
2022-07-26T10:44:29.764Z,100.00
2022-07-26T10:47:04.318Z,92.17
2022-07-26T10:49:38.639Z,87.23
2022-07-26T10:52:04.935Z,95.47
2022-07-26T10:54:31.368Z,91.86
2022-07-26T10:56:58.061Z,100.00
2022-07-26T10:59:54.720Z,98.10
2022-07-26T11:02:20.732Z,86.16
2022-07-26T11:04:47.541Z,66.88
2022-07-26T11:07:13.912Z,58.44
2022-07-26T11:09:40.255Z,47.86
2022-07-26T11:12:19.556Z,48.34
2022-07-26T11:14:48.390Z,53.59
2022-07-26T11:17:24.314Z,56.97
2022-07-26T11:19:50.790Z,52.14
2022-07-26T11:22:17.194Z,52.05
2022-07-26T11:24:44.155Z,50.79
2022-07-26T11:27:10.521Z,54.82
2022-07-26T11:29:39.218Z,53.73
2022-07-26T11:32:17.422Z,47.79
2022-07-26T11:34:45.366Z,47.76
2022-07-26T11:37:11.804Z,45.69
2022-07-26T11:39:38.145Z,45.38
2022-07-26T11:42:06.056Z,46.94
2022-07-26T11:44:32.752Z,42.59
2022-07-26T11:47:00.007Z,41.19
2022-07-26T11:50:01.006Z,44.37
2022-07-26T11:52:14.868Z,45.80
2022-07-26T11:54:47.120Z,45.34
2022-07-26T11:57:13.730Z,43.37
2022-07-26T11:59:40.122Z,40.93
2022-07-26T12:02:08.668Z,43.37
2022-07-26T12:04:38.423Z,45.88
2022-07-26T12:07:10.253Z,47.83
2022-07-26T12:09:37.895Z,50.76
2022-07-26T12:12:05.673Z,50.92
2022-07-26T12:14:33.379Z,50.55
2022-07-26T12:17:10.107Z,42.13
2022-07-26T12:19:36.943Z,43.13
2022-07-26T12:22:13.880Z,44.37
2022-07-26T12:24:52.375Z,42.27
2022-07-26T12:27:25.929Z,42.67
2022-07-26T12:30:15.610Z,38.13
2022-07-26T12:32:43.483Z,36.15
2022-07-26T12:35:11.073Z,36.08
2022-07-26T12:37:47.946Z,36.68
2022-07-26T12:40:16.150Z,35.93
2022-07-26T12:42:44.069Z,37.66
2022-07-26T12:45:12.115Z,37.66
2022-07-26T12:47:40.060Z,40.88
2022-07-26T12:50:06.729Z,43.71
2022-07-26T12:52:33.859Z,46.45
2022-07-26T12:55:00.611Z,40.35
2022-07-26T12:57:27.363Z,38.00
2022-07-26T12:59:54.311Z,38.55
2022-07-26T13:02:21.032Z,38.62
2022-07-26T13:04:47.907Z,39.43
2022-07-26T13:07:15.694Z,39.11
2022-07-26T13:09:42.546Z,37.72
2022-07-26T13:12:09.726Z,38.55
2022-07-26T13:14:36.479Z,36.90
2022-07-26T13:17:03.530Z,37.72
2022-07-26T13:19:30.078Z,36.71
2022-07-26T13:21:57.420Z,35.48
2022-07-26T13:24:24.939Z,33.62
2022-07-26T13:26:51.546Z,34.96
2022-07-26T13:29:18.435Z,35.76
2022-07-26T13:31:44.898Z,34.90
2022-07-26T13:34:11.675Z,33.95
2022-07-26T13:36:38.722Z,33.74
2022-07-26T13:39:05.406Z,36.44
2022-07-26T13:41:31.939Z,38.99
2022-07-26T13:44:02.201Z,41.34
2022-07-26T13:46:33.496Z,45.61
2022-07-26T13:49:01.732Z,49.37
2022-07-26T13:51:56.268Z,51.54
2022-07-26T13:54:23.833Z,48.04
2022-07-26T13:56:50.258Z,45.33
2022-07-26T13:59:16.787Z,41.01
2022-07-26T14:01:45.143Z,41.19
2022-07-26T14:04:13.209Z,41.00
2022-07-26T14:06:40.068Z,45.97
2022-07-26T14:09:10.565Z,50.11
2022-07-26T14:11:38.053Z,53.43
2022-07-26T14:14:04.831Z,56.04
2022-07-26T14:16:31.663Z,52.49
2022-07-26T14:18:58.261Z,46.83
2022-07-26T14:21:28.227Z,51.54
2022-07-26T14:23:58.135Z,55.39
2022-07-26T14:26:25.726Z,56.35
2022-07-26T14:28:53.938Z,62.14
2022-07-26T14:31:20.384Z,64.34
2022-07-26T14:33:46.768Z,69.34
2022-07-26T14:36:13.622Z,65.65
2022-07-26T14:38:41.299Z,65.47
2022-07-26T14:41:08.072Z,68.21
2022-07-26T14:43:34.387Z,66.81
2022-07-26T14:46:00.975Z,68.72
2022-07-26T14:48:53.055Z,67.71
2022-07-26T14:51:13.751Z,69.17
2022-07-26T14:53:41.304Z,61.18
2022-07-26T14:56:07.642Z,51.94
2022-07-26T14:58:33.991Z,45.81
2022-07-26T15:01:00.450Z,41.72
2022-07-26T15:03:30.851Z,42.04
2022-07-26T15:05:57.793Z,44.50
2022-07-26T15:08:24.108Z,43.79
2022-07-26T15:10:50.516Z,45.32
2022-07-26T15:13:17.059Z,42.65
2022-07-26T15:15:43.468Z,44.86
2022-07-26T15:18:09.980Z,46.65
2022-07-26T15:20:38.644Z,52.03
2022-07-26T15:23:06.034Z,52.39
2022-07-26T15:25:35.212Z,50.02
2022-07-26T15:28:01.697Z,48.13
2022-07-26T15:30:27.996Z,51.19
2022-07-26T15:32:55.553Z,52.99
2022-07-26T15:35:21.926Z,52.15
2022-07-26T15:37:48.212Z,50.38
2022-07-26T15:40:14.817Z,52.16
2022-07-26T15:42:42.487Z,52.99
2022-07-26T15:45:11.537Z,55.94
2022-07-26T15:48:01.098Z,62.72
2022-07-26T15:50:25.991Z,63.94
2022-07-26T15:52:52.438Z,63.73
2022-07-26T15:55:19.446Z,63.87
2022-07-26T15:57:45.838Z,65.81
2022-07-26T16:00:12.694Z,72.17
2022-07-26T16:02:39.672Z,77.44
2022-07-26T16:05:06.352Z,78.84
2022-07-26T16:07:32.807Z,82.22
2022-07-26T16:09:59.114Z,90.63
2022-07-26T16:12:25.433Z,96.72
2022-07-26T16:14:51.799Z,93.31
2022-07-26T16:17:18.112Z,97.78
2022-07-26T16:19:44.407Z,98.71
2022-07-26T16:22:10.734Z,89.47
2022-07-26T16:24:37.157Z,89.68
2022-07-26T16:27:03.797Z,89.87
2022-07-26T16:29:30.154Z,91.28
2022-07-26T16:31:56.566Z,87.61
2022-07-26T16:34:22.909Z,85.89
2022-07-26T16:36:49.217Z,75.03
2022-07-26T16:39:15.814Z,75.41
2022-07-26T16:41:42.464Z,76.48
2022-07-26T16:44:08.780Z,76.52
2022-07-26T16:46:35.228Z,74.94
2022-07-26T16:49:01.733Z,67.08
2022-07-26T16:51:31.056Z,63.26
2022-07-26T16:53:57.383Z,63.75
2022-07-26T16:56:23.742Z,57.36
2022-07-26T16:58:50.117Z,58.94
2022-07-26T17:01:16.744Z,64.69
2022-07-26T17:03:43.218Z,71.02
2022-07-26T17:06:09.578Z,71.08
2022-07-26T17:08:36.029Z,72.55
2022-07-26T17:11:02.365Z,73.49
2022-07-26T17:13:28.747Z,75.88
2022-07-26T17:15:55.160Z,81.37
2022-07-26T17:18:21.867Z,87.20
2022-07-26T17:20:48.242Z,90.44
2022-07-26T17:23:14.582Z,90.75
2022-07-26T17:25:40.941Z,86.51
2022-07-26T17:28:07.265Z,87.79
2022-07-26T17:30:33.659Z,88.26
2022-07-26T17:32:59.984Z,88.80
2022-07-26T17:35:26.364Z,93.41
2022-07-26T17:37:55.523Z,97.69
2022-07-26T17:40:23.102Z,100.00
2022-07-26T17:42:52.394Z,100.00
2022-07-26T17:45:18.708Z,100.00
2022-07-26T17:47:45.063Z,100.00
2022-07-26T17:50:36.666Z,100.00
2022-07-26T17:52:58.270Z,100.00
2022-07-26T17:55:24.621Z,100.00
2022-07-26T17:57:51.399Z,100.00
2022-07-26T18:00:19.413Z,100.00
2022-07-26T18:02:46.002Z,100.00
2022-07-26T18:05:12.501Z,100.00
2022-07-26T18:07:39.532Z,100.00
2022-07-26T18:10:06.364Z,100.00
2022-07-26T18:12:32.829Z,100.00
2022-07-26T18:14:59.154Z,100.00
2022-07-26T18:17:25.498Z,100.00
2022-07-26T18:19:51.850Z,100.00
2022-07-26T18:22:18.233Z,100.00
2022-07-26T18:24:44.551Z,100.00
2022-07-26T18:27:10.866Z,100.00
2022-07-26T18:29:37.202Z,100.00
2022-07-26T18:32:03.591Z,100.00
2022-07-26T18:34:29.925Z,100.00
2022-07-26T18:36:56.299Z,100.00
2022-07-26T18:39:22.680Z,100.00
2022-07-26T18:41:49.068Z,100.00
2022-07-26T18:44:15.375Z,100.00
2022-07-26T18:46:41.778Z,100.00
2022-07-26T18:49:08.248Z,100.00
2022-07-26T18:51:34.765Z,100.00
2022-07-26T18:54:01.747Z,100.00
2022-07-26T18:56:28.099Z,100.00
2022-07-26T18:58:54.645Z,100.00
2022-07-26T19:01:20.982Z,100.00
2022-07-26T19:03:47.386Z,100.00
2022-07-26T19:06:13.736Z,100.00
2022-07-26T19:08:40.091Z,100.00
2022-07-26T19:11:06.429Z,100.00
2022-07-26T19:13:32.877Z,100.00
2022-07-26T19:15:59.286Z,100.00
2022-07-26T19:18:25.758Z,100.00
2022-07-26T19:20:52.072Z,100.00
2022-07-26T19:23:18.414Z,100.00
2022-07-26T19:25:44.869Z,100.00
2022-07-26T19:28:13.590Z,100.00
2022-07-26T19:30:39.916Z,100.00
2022-07-26T19:33:06.221Z,100.00
2022-07-26T19:35:32.558Z,100.00
2022-07-26T19:37:58.885Z,100.00
2022-07-26T19:40:25.215Z,100.00
2022-07-26T19:42:51.555Z,100.00
2022-07-26T19:45:18.187Z,100.00
2022-07-26T19:47:44.694Z,100.00
2022-07-26T19:50:11.849Z,100.00
2022-07-26T19:52:39.293Z,100.00
2022-07-26T19:55:05.949Z,100.00
2022-07-26T19:57:32.297Z,100.00
2022-07-26T20:00:00.397Z,100.00
2022-07-26T20:02:26.740Z,100.00
2022-07-26T20:04:54.456Z,100.00
2022-07-26T20:07:20.765Z,100.00
2022-07-26T20:09:47.612Z,100.00
2022-07-26T20:12:13.973Z,100.00
2022-07-26T20:14:40.365Z,100.00
2022-07-26T20:17:11.765Z,100.00
2022-07-26T20:19:39.667Z,100.00
2022-07-26T20:22:06.091Z,100.00
2022-07-26T20:24:32.404Z,100.00
2022-07-26T20:26:58.724Z,100.00
2022-07-26T20:29:25.081Z,100.00
2022-07-26T20:31:51.391Z,100.00
2022-07-26T20:34:17.785Z,100.00
2022-07-26T20:36:44.107Z,100.00
2022-07-26T20:39:10.842Z,100.00
2022-07-26T20:41:37.480Z,100.00
2022-07-26T20:44:05.488Z,100.00
2022-07-26T20:46:31.896Z,100.00
2022-07-26T20:48:58.484Z,100.00
2022-07-26T20:51:25.364Z,100.00
2022-07-26T20:53:51.671Z,100.00
2022-07-26T20:56:18.000Z,100.00
2022-07-26T20:58:44.332Z,100.00
2022-07-26T21:01:11.888Z,100.00
2022-07-26T21:03:39.208Z,100.00
2022-07-26T21:06:05.575Z,100.00
2022-07-26T21:08:31.894Z,100.00
2022-07-26T21:10:58.213Z,100.00
2022-07-26T21:13:24.998Z,100.00
2022-07-26T21:15:53.290Z,100.00
2022-07-26T21:18:20.109Z,100.00
2022-07-26T21:20:46.714Z,100.00
2022-07-26T21:23:17.800Z,100.00
2022-07-26T21:25:44.881Z,100.00
2022-07-26T21:28:11.209Z,100.00
2022-07-26T21:30:37.586Z,100.00
2022-07-26T21:33:03.939Z,100.00
2022-07-26T21:35:32.158Z,100.00
2022-07-26T21:37:58.456Z,100.00
2022-07-26T21:40:24.995Z,100.00
2022-07-26T21:42:51.314Z,100.00
2022-07-26T21:45:17.647Z,100.00
2022-07-26T21:47:43.986Z,100.00
2022-07-26T21:50:10.396Z,100.00
2022-07-26T21:52:36.703Z,100.00
2022-07-26T21:55:03.228Z,100.00
2022-07-26T21:57:29.560Z,100.00
2022-07-26T21:59:55.876Z,100.00
2022-07-26T22:02:22.222Z,100.00
2022-07-26T22:04:48.613Z,100.00
2022-07-26T22:07:14.935Z,100.00
2022-07-26T22:09:41.423Z,100.00
2022-07-26T22:12:07.997Z,100.00
2022-07-26T22:14:34.413Z,100.00
2022-07-26T22:17:00.882Z,100.00
2022-07-26T22:19:27.269Z,100.00
2022-07-26T22:21:53.589Z,100.00
2022-07-26T22:24:19.953Z,100.00
2022-07-26T22:26:46.374Z,100.00
2022-07-26T22:29:13.098Z,100.00
2022-07-26T22:31:39.746Z,100.00
2022-07-26T22:34:06.107Z,100.00
2022-07-26T22:36:32.428Z,100.00
2022-07-26T22:38:58.758Z,100.00
2022-07-26T22:41:25.157Z,100.00
2022-07-26T22:43:53.113Z,100.00
2022-07-26T22:46:27.578Z,100.00
2022-07-26T22:48:55.537Z,100.00
2022-07-26T22:51:21.902Z,100.00
2022-07-26T22:53:48.213Z,100.00
2022-07-26T22:56:19.572Z,100.00
2022-07-26T22:58:46.403Z,100.00
2022-07-26T23:01:12.846Z,100.00
2022-07-26T23:03:39.251Z,100.00
2022-07-26T23:06:10.383Z,100.00
2022-07-26T23:08:52.945Z,100.00
2022-07-26T23:11:19.272Z,100.00
2022-07-26T23:13:45.618Z,100.00
2022-07-26T23:16:11.954Z,100.00
2022-07-26T23:18:38.386Z,100.00
2022-07-26T23:21:04.770Z,100.00
2022-07-26T23:23:31.358Z,100.00
2022-07-26T23:25:58.462Z,100.00
2022-07-26T23:28:37.394Z,100.00
2022-07-26T23:31:05.714Z,100.00
2022-07-26T23:33:53.045Z,100.00
2022-07-26T23:36:18.388Z,100.00
2022-07-26T23:38:44.710Z,100.00
2022-07-26T23:41:11.051Z,100.00
2022-07-26T23:43:37.431Z,100.00
2022-07-26T23:46:03.766Z,100.00
2022-07-26T23:48:30.456Z,100.00
2022-07-26T23:50:57.030Z,100.00
2022-07-26T23:53:26.625Z,100.00
2022-07-26T23:55:53.523Z,100.00
2022-07-26T23:58:19.854Z,100.00
